Parma — V2OZ9 — position and weather

sailwx.info

Track history (hours):
 
Tides and Currents Weather Stations Pressure Air Temp Water Temp Dewpoint Dewpoint Depression Visibility Wind Speed Wind Dir Waves Ship Positions

Parma

Last reported at 2015-Jan-30 10:31 UTC. Time now 2015-Jan-30 11:00 UTC.
Position N 53°26' W 003°00'.

MMSI: 279073176.

Date/timePositionNaut miles runAvg speedWind from/ knotsBaromVisibWave heightAir tempDewpointWater temp
2015-Jan-30 10:31N 53°26' W 003°00'0 0.0
2015-Jan-30 09:31N 53°26' W 003°00'0 0.0
2015-Jan-30 08:25N 53°26' W 003°00'0 0.0
2015-Jan-30 07:31N 53°26' W 003°00'0 0.0
2015-Jan-30 06:31N 53°26' W 003°00'0 0.0
2015-Jan-30 05:31N 53°26' W 003°00'0 0.0
2015-Jan-30 04:31N 53°26' W 003°00'0 0.0
2015-Jan-30 03:31N 53°26' W 003°00'0 0.0
2015-Jan-30 02:31N 53°26' W 003°00'0 0.0
2015-Jan-30 01:31N 53°26' W 003°00'0 0.0
2015-Jan-30 00:31N 53°26' W 003°00'0 0.0
2015-Jan-29 23:31N 53°26' W 003°00'0 0.0
2015-Jan-29 22:25N 53°26' W 003°00'0 0.0
2015-Jan-29 21:31N 53°26' W 003°00'2 1.6
2015-Jan-29 20:33N 53°28' W 003°02'0 0.4
2015-Jan-29 19:31N 53°27' W 003°01'0 0.1
2015-Jan-29 18:31N 53°27' W 003°01'0 0.0
2015-Jan-29 17:25N 53°27' W 003°01'0 0.0
2015-Jan-29 16:31N 53°27' W 003°01'0 0.0
2015-Jan-29 15:31N 53°27' W 003°01'0 0.0
2015-Jan-29 14:31N 53°27' W 003°01'0 0.0
2015-Jan-29 13:31N 53°27' W 003°01'0 0.0
2015-Jan-29 12:19N 53°27' W 003°01'0 0.0
2015-Jan-29 11:31N 53°27' W 003°01'0 0.0
2015-Jan-29 10:19N 53°27' W 003°01'0 0.0
2015-Jan-29 09:25N 53°27' W 003°01'0 0.0
2015-Jan-29 08:31N 53°27' W 003°01'0 0.0
2015-Jan-29 07:32N 53°27' W 003°01'0 0.0
2015-Jan-29 06:31N 53°27' W 003°01'0 0.0
2015-Jan-29 05:31N 53°27' W 003°01'0 0.0
2015-Jan-29 04:31N 53°27' W 003°01'0 0.0
2015-Jan-29 03:31N 53°27' W 003°01'0 0.0
2015-Jan-29 02:31N 53°27' W 003°01'0 0.0
2015-Jan-29 01:31N 53°27' W 003°01'0 0.0
2015-Jan-29 00:31N 53°27' W 003°01'0 0.0
2015-Jan-28 23:31N 53°27' W 003°01'0 0.0
2015-Jan-28 22:31N 53°27' W 003°01'0 0.0
2015-Jan-28 21:31N 53°27' W 003°01'0 0.0
2015-Jan-28 20:31N 53°27' W 003°01'0 0.0
2015-Jan-28 19:31N 53°27' W 003°01'0 0.0
2015-Jan-28 18:31N 53°27' W 003°01'0 0.0
2015-Jan-28 17:31N 53°27' W 003°01'0 0.0
2015-Jan-28 16:19N 53°27' W 003°01'0 0.0
2015-Jan-28 15:31N 53°27' W 003°01'0 0.0
2015-Jan-28 14:31N 53°27' W 003°01'0 0.0
2015-Jan-28 13:31N 53°27' W 003°01'0 0.0
2015-Jan-28 12:25N 53°27' W 003°01'0 0.0
2015-Jan-28 11:31N 53°27' W 003°01'0 0.0
2015-Jan-28 10:31N 53°27' W 003°01'0 0.0
2015-Jan-28 09:31N 53°27' W 003°01'0 0.0
2015-Jan-28 08:31N 53°27' W 003°01'0 0.0
2015-Jan-28 07:25N 53°27' W 003°01'0 0.0
2015-Jan-28 06:31N 53°27' W 003°01'0 0.0
2015-Jan-28 05:32N 53°27' W 003°01'0 0.0
2015-Jan-28 04:31N 53°27' W 003°01'0 0.0
2015-Jan-28 03:31N 53°27' W 003°01'0 0.0
2015-Jan-28 02:25N 53°27' W 003°01'0 0.0
2015-Jan-28 01:31N 53°27' W 003°01'0 0.0
2015-Jan-28 00:31N 53°27' W 003°01'0 0.0
2015-Jan-27 23:31N 53°27' W 003°01'0 0.0
2015-Jan-27 22:31N 53°27' W 003°01'0 0.0
2015-Jan-27 21:25N 53°27' W 003°01'0 0.0
2015-Jan-27 20:33N 53°27' W 003°01'0 0.1
2015-Jan-27 19:33N 53°27' W 003°01'1 1.2
2015-Jan-27 18:33N 53°28' W 003°03'8 7.6
2015-Jan-27 17:29N 53°31' W 003°15'  
Track history (hours):
 
Tides and Currents Weather Stations Pressure Air Temp Water Temp Dewpoint Dewpoint Depression Visibility Wind Speed Wind Dir Waves Ship Positions

Parma

Last reported at 2015-Jan-30 10:31 UTC. Time now 2015-Jan-30 11:00 UTC.
Position N 53°26' W 003°00'.

MMSI: 279073176.

Date/timePositionNaut miles runAvg speedWind from/ knotsBaromVisibWave heightAir tempDewpointWater temp
2015-Jan-30 10:31N 53°26' W 003°00'0 0.0
2015-Jan-30 09:31N 53°26' W 003°00'0 0.0
2015-Jan-30 08:25N 53°26' W 003°00'0 0.0
2015-Jan-30 07:31N 53°26' W 003°00'0 0.0
2015-Jan-30 06:31N 53°26' W 003°00'0 0.0
2015-Jan-30 05:31N 53°26' W 003°00'0 0.0
2015-Jan-30 04:31N 53°26' W 003°00'0 0.0
2015-Jan-30 03:31N 53°26' W 003°00'0 0.0
2015-Jan-30 02:31N 53°26' W 003°00'0 0.0
2015-Jan-30 01:31N 53°26' W 003°00'0 0.0
2015-Jan-30 00:31N 53°26' W 003°00'0 0.0
2015-Jan-29 23:31N 53°26' W 003°00'0 0.0
2015-Jan-29 22:25N 53°26' W 003°00'0 0.0
2015-Jan-29 21:31N 53°26' W 003°00'2 1.6
2015-Jan-29 20:33N 53°28' W 003°02'0 0.4
2015-Jan-29 19:31N 53°27' W 003°01'0 0.1
2015-Jan-29 18:31N 53°27' W 003°01'0 0.0
2015-Jan-29 17:25N 53°27' W 003°01'0 0.0
2015-Jan-29 16:31N 53°27' W 003°01'0 0.0
2015-Jan-29 15:31N 53°27' W 003°01'0 0.0
2015-Jan-29 14:31N 53°27' W 003°01'0 0.0
2015-Jan-29 13:31N 53°27' W 003°01'0 0.0
2015-Jan-29 12:19N 53°27' W 003°01'0 0.0
2015-Jan-29 11:31N 53°27' W 003°01'0 0.0
2015-Jan-29 10:19N 53°27' W 003°01'0 0.0
2015-Jan-29 09:25N 53°27' W 003°01'0 0.0
2015-Jan-29 08:31N 53°27' W 003°01'0 0.0
2015-Jan-29 07:32N 53°27' W 003°01'0 0.0
2015-Jan-29 06:31N 53°27' W 003°01'0 0.0
2015-Jan-29 05:31N 53°27' W 003°01'0 0.0
2015-Jan-29 04:31N 53°27' W 003°01'0 0.0
2015-Jan-29 03:31N 53°27' W 003°01'0 0.0
2015-Jan-29 02:31N 53°27' W 003°01'0 0.0
2015-Jan-29 01:31N 53°27' W 003°01'0 0.0
2015-Jan-29 00:31N 53°27' W 003°01'0 0.0
2015-Jan-28 23:31N 53°27' W 003°01'0 0.0
2015-Jan-28 22:31N 53°27' W 003°01'0 0.0
2015-Jan-28 21:31N 53°27' W 003°01'0 0.0
2015-Jan-28 20:31N 53°27' W 003°01'0 0.0
2015-Jan-28 19:31N 53°27' W 003°01'0 0.0
2015-Jan-28 18:31N 53°27' W 003°01'0 0.0
2015-Jan-28 17:31N 53°27' W 003°01'0 0.0
2015-Jan-28 16:19N 53°27' W 003°01'0 0.0
2015-Jan-28 15:31N 53°27' W 003°01'0 0.0
2015-Jan-28 14:31N 53°27' W 003°01'0 0.0
2015-Jan-28 13:31N 53°27' W 003°01'0 0.0
2015-Jan-28 12:25N 53°27' W 003°01'0 0.0
2015-Jan-28 11:31N 53°27' W 003°01'0 0.0
2015-Jan-28 10:31N 53°27' W 003°01'0 0.0
2015-Jan-28 09:31N 53°27' W 003°01'0 0.0
2015-Jan-28 08:31N 53°27' W 003°01'0 0.0
2015-Jan-28 07:25N 53°27' W 003°01'0 0.0
2015-Jan-28 06:31N 53°27' W 003°01'0 0.0
2015-Jan-28 05:32N 53°27' W 003°01'0 0.0
2015-Jan-28 04:31N 53°27' W 003°01'0 0.0
2015-Jan-28 03:31N 53°27' W 003°01'0 0.0
2015-Jan-28 02:25N 53°27' W 003°01'0 0.0
2015-Jan-28 01:31N 53°27' W 003°01'0 0.0
2015-Jan-28 00:31N 53°27' W 003°01'0 0.0
2015-Jan-27 23:31N 53°27' W 003°01'0 0.0
2015-Jan-27 22:31N 53°27' W 003°01'0 0.0
2015-Jan-27 21:25N 53°27' W 003°01'0 0.0
2015-Jan-27 20:33N 53°27' W 003°01'0 0.1
2015-Jan-27 19:33N 53°27' W 003°01'1 1.2
2015-Jan-27 18:33N 53°28' W 003°03'8 7.6
2015-Jan-27 17:29N 53°31' W 003°15'  

Dump ship's entire track history